sensor_id;sensor_type;location;lat;lon;timestamp;P1;P2;P0
56175;PMS5003;63065;51.082;17.016;2023-02-04T00:01:06;2;2;
56175;PMS5003;63065;51.082;17.016;2023-02-04T00:03:32;1;1;
56175;PMS5003;63065;51.082;17.016;2023-02-04T00:05:57;4;2;
56175;PMS5003;63065;51.082;17.016;2023-02-04T00:08:22;3;2;
56175;PMS5003;63065;51.082;17.016;2023-02-04T00:10:47;1;1;
56175;PMS5003;63065;51.082;17.016;2023-02-04T00:13:12;3;3;
56175;PMS5003;63065;51.082;17.016;2023-02-04T00:15:38;2;2;
56175;PMS5003;63065;51.082;17.016;2023-02-04T00:18:02;1;1;
56175;PMS5003;63065;51.082;17.016;2023-02-04T00:20:28;1;1;
56175;PMS5003;63065;51.082;17.016;2023-02-04T00:22:53;2;2;
56175;PMS5003;63065;51.082;17.016;2023-02-04T00:25:18;1;1;
56175;PMS5003;63065;51.082;17.016;2023-02-04T00:27:43;2;2;
56175;PMS5003;63065;51.082;17.016;2023-02-04T00:30:08;1;1;
56175;PMS5003;63065;51.082;17.016;2023-02-04T00:32:33;3;3;
56175;PMS5003;63065;51.082;17.016;2023-02-04T00:34:58;3;3;
56175;PMS5003;63065;51.082;17.016;2023-02-04T00:37:23;4;3;
56175;PMS5003;63065;51.082;17.016;2023-02-04T00:39:48;1;1;
56175;PMS5003;63065;51.082;17.016;2023-02-04T00:42:13;2;2;
56175;PMS5003;63065;51.082;17.016;2023-02-04T00:44:38;2;2;
56175;PMS5003;63065;51.082;17.016;2023-02-04T00:47:04;2;2;
56175;PMS5003;63065;51.082;17.016;2023-02-04T00:49:29;4;4;
56175;PMS5003;63065;51.082;17.016;2023-02-04T00:51:54;3;3;
56175;PMS5003;63065;51.082;17.016;2023-02-04T00:54:19;4;4;
56175;PMS5003;63065;51.082;17.016;2023-02-04T00:56:44;4;4;
56175;PMS5003;63065;51.082;17.016;2023-02-04T00:59:09;3;3;
56175;PMS5003;63065;51.082;17.016;2023-02-04T01:01:34;2;2;
56175;PMS5003;63065;51.082;17.016;2023-02-04T01:03:59;4;4;
56175;PMS5003;63065;51.082;17.016;2023-02-04T01:06:24;5;3;
56175;PMS5003;63065;51.082;17.016;2023-02-04T01:08:49;4;4;
56175;PMS5003;63065;51.082;17.016;2023-02-04T01:11:15;4;4;
56175;PMS5003;63065;51.082;17.016;2023-02-04T01:13:40;2;2;
56175;PMS5003;63065;51.082;17.016;2023-02-04T01:16:05;5;4;
56175;PMS5003;63065;51.082;17.016;2023-02-04T01:18:30;2;2;
56175;PMS5003;63065;51.082;17.016;2023-02-04T01:20:55;4;3;
56175;PMS5003;63065;51.082;17.016;2023-02-04T01:23:20;4;3;
56175;PMS5003;63065;51.082;17.016;2023-02-04T01:25:45;6;3;
56175;PMS5003;63065;51.082;17.016;2023-02-04T01:28:11;3;3;
56175;PMS5003;63065;51.082;17.016;2023-02-04T01:30:36;3;3;
56175;PMS5003;63065;51.082;17.016;2023-02-04T01:33:01;3;3;
56175;PMS5003;63065;51.082;17.016;2023-02-04T01:35:26;3;3;
56175;PMS5003;63065;51.082;17.016;2023-02-04T01:37:51;8;6;
56175;PMS5003;63065;51.082;17.016;2023-02-04T01:40:16;5;5;
56175;PMS5003;63065;51.082;17.016;2023-02-04T01:42:41;9;8;
56175;PMS5003;63065;51.082;17.016;2023-02-04T01:45:06;27;23;
56175;PMS5003;63065;51.082;17.016;2023-02-04T01:47:33;31;30;
56175;PMS5003;63065;51.082;17.016;2023-02-04T01:49:58;35;33;
56175;PMS5003;63065;51.082;17.016;2023-02-04T01:52:23;35;34;
56175;PMS5003;63065;51.082;17.016;2023-02-04T01:54:48;38;34;
56175;PMS5003;63065;51.082;17.016;2023-02-04T01:57:14;37;35;
56175;PMS5003;63065;51.082;17.016;2023-02-04T01:59:39;37;34;
56175;PMS5003;63065;51.082;17.016;2023-02-04T02:04:30;44;40;
56175;PMS5003;63065;51.082;17.016;2023-02-04T02:06:56;38;38;
56175;PMS5003;63065;51.082;17.016;2023-02-04T02:09:20;43;41;
56175;PMS5003;63065;51.082;17.016;2023-02-04T02:11:45;41;37;
56175;PMS5003;63065;51.082;17.016;2023-02-04T02:14:12;40;35;
56175;PMS5003;63065;51.082;17.016;2023-02-04T02:16:36;34;33;
56175;PMS5003;63065;51.082;17.016;2023-02-04T02:19:02;48;41;
56175;PMS5003;63065;51.082;17.016;2023-02-04T02:21:30;37;33;
56175;PMS5003;63065;51.082;17.016;2023-02-04T02:23:53;39;35;
56175;PMS5003;63065;51.082;17.016;2023-02-04T02:26:18;35;32;
56175;PMS5003;63065;51.082;17.016;2023-02-04T02:28:43;32;30;
56175;PMS5003;63065;51.082;17.016;2023-02-04T02:31:14;36;33;
56175;PMS5003;63065;51.082;17.016;2023-02-04T02:33:34;34;34;
56175;PMS5003;63065;51.082;17.016;2023-02-04T02:35:59;32;32;
56175;PMS5003;63065;51.082;17.016;2023-02-04T02:38:24;29;26;
56175;PMS5003;63065;51.082;17.016;2023-02-04T02:40:49;31;28;
56175;PMS5003;63065;51.082;17.016;2023-02-04T02:43:16;36;33;
56175;PMS5003;63065;51.082;17.016;2023-02-04T02:45:41;30;30;
56175;PMS5003;63065;51.082;17.016;2023-02-04T02:48:07;25;25;
56175;PMS5003;63065;51.082;17.016;2023-02-04T02:50:32;30;26;
56175;PMS5003;63065;51.082;17.016;2023-02-04T02:52:58;28;28;
56175;PMS5003;63065;51.082;17.016;2023-02-04T02:55:23;23;21;
56175;PMS5003;63065;51.082;17.016;2023-02-04T02:57:48;29;23;
56175;PMS5003;63065;51.082;17.016;2023-02-04T03:00:14;21;21;
56175;PMS5003;63065;51.082;17.016;2023-02-04T03:02:38;21;21;
56175;PMS5003;63065;51.082;17.016;2023-02-04T03:05:03;22;18;
56175;PMS5003;63065;51.082;17.016;2023-02-04T03:07:28;21;19;
56175;PMS5003;63065;51.082;17.016;2023-02-04T03:09:54;21;17;
56175;PMS5003;63065;51.082;17.016;2023-02-04T03:12:19;14;14;
56175;PMS5003;63065;51.082;17.016;2023-02-04T03:14:45;17;17;
56175;PMS5003;63065;51.082;17.016;2023-02-04T03:17:10;19;19;
56175;PMS5003;63065;51.082;17.016;2023-02-04T03:19:36;12;12;
56175;PMS5003;63065;51.082;17.016;2023-02-04T03:22:01;16;16;
56175;PMS5003;63065;51.082;17.016;2023-02-04T03:24:26;15;15;
56175;PMS5003;63065;51.082;17.016;2023-02-04T03:26:51;13;13;
56175;PMS5003;63065;51.082;17.016;2023-02-04T03:29:16;12;12;
56175;PMS5003;63065;51.082;17.016;2023-02-04T03:31:41;12;12;
56175;PMS5003;63065;51.082;17.016;2023-02-04T03:34:07;12;12;
56175;PMS5003;63065;51.082;17.016;2023-02-04T03:36:32;19;12;
56175;PMS5003;63065;51.082;17.016;2023-02-04T03:38:58;11;11;
56175;PMS5003;63065;51.082;17.016;2023-02-04T03:41:23;12;10;
56175;PMS5003;63065;51.082;17.016;2023-02-04T03:43:53;14;11;
56175;PMS5003;63065;51.082;17.016;2023-02-04T03:46:13;9;9;
56175;PMS5003;63065;51.082;17.016;2023-02-04T03:48:39;9;9;
56175;PMS5003;63065;51.082;17.016;2023-02-04T03:51:04;12;12;
56175;PMS5003;63065;51.082;17.016;2023-02-04T03:53:30;11;9;
56175;PMS5003;63065;51.082;17.016;2023-02-04T03:55:54;11;10;
56175;PMS5003;63065;51.082;17.016;2023-02-04T03:58:20;9;9;
56175;PMS5003;63065;51.082;17.016;2023-02-04T04:00:45;12;11;
56175;PMS5003;63065;51.082;17.016;2023-02-04T04:03:11;14;12;
56175;PMS5003;63065;51.082;17.016;2023-02-04T04:05:40;15;14;
56175;PMS5003;63065;51.082;17.016;2023-02-04T04:08:01;14;12;
56175;PMS5003;63065;51.082;17.016;2023-02-04T04:10:26;11;11;
56175;PMS5003;63065;51.082;17.016;2023-02-04T04:12:51;13;12;
56175;PMS5003;63065;51.082;17.016;2023-02-04T04:15:17;14;13;
56175;PMS5003;63065;51.082;17.016;2023-02-04T04:17:42;14;13;
56175;PMS5003;63065;51.082;17.016;2023-02-04T04:20:09;13;13;
56175;PMS5003;63065;51.082;17.016;2023-02-04T04:22:33;13;13;
56175;PMS5003;63065;51.082;17.016;2023-02-04T04:24:58;16;12;
56175;PMS5003;63065;51.082;17.016;2023-02-04T04:27:24;19;15;
56175;PMS5003;63065;51.082;17.016;2023-02-04T04:29:49;11;11;
56175;PMS5003;63065;51.082;17.016;2023-02-04T04:32:15;12;10;
56175;PMS5003;63065;51.082;17.016;2023-02-04T04:34:41;14;13;
56175;PMS5003;63065;51.082;17.016;2023-02-04T04:37:06;13;13;
56175;PMS5003;63065;51.082;17.016;2023-02-04T04:39:31;14;13;
56175;PMS5003;63065;51.082;17.016;2023-02-04T04:41:57;16;14;
56175;PMS5003;63065;51.082;17.016;2023-02-04T04:44:22;13;12;
56175;PMS5003;63065;51.082;17.016;2023-02-04T04:46:47;14;12;
56175;PMS5003;63065;51.082;17.016;2023-02-04T04:49:12;20;16;
56175;PMS5003;63065;51.082;17.016;2023-02-04T04:51:38;13;13;
56175;PMS5003;63065;51.082;17.016;2023-02-04T04:54:03;19;19;
56175;PMS5003;63065;51.082;17.016;2023-02-04T04:56:28;19;18;
56175;PMS5003;63065;51.082;17.016;2023-02-04T04:58:54;20;19;
56175;PMS5003;63065;51.082;17.016;2023-02-04T05:01:19;20;20;
56175;PMS5003;63065;51.082;17.016;2023-02-04T05:03:45;17;15;
56175;PMS5003;63065;51.082;17.016;2023-02-04T05:06:11;16;16;
56175;PMS5003;63065;51.082;17.016;2023-02-04T05:08:35;14;14;
56175;PMS5003;63065;51.082;17.016;2023-02-04T05:11:00;17;17;
56175;PMS5003;63065;51.082;17.016;2023-02-04T05:13:25;23;22;
56175;PMS5003;63065;51.082;17.016;2023-02-04T05:15:51;16;16;
56175;PMS5003;63065;51.082;17.016;2023-02-04T05:18:16;22;21;
56175;PMS5003;63065;51.082;17.016;2023-02-04T05:20:41;19;18;
56175;PMS5003;63065;51.082;17.016;2023-02-04T05:23:07;19;19;
56175;PMS5003;63065;51.082;17.016;2023-02-04T05:25:32;18;18;
56175;PMS5003;63065;51.082;17.016;2023-02-04T05:27:58;20;20;
56175;PMS5003;63065;51.082;17.016;2023-02-04T05:30:23;18;16;
56175;PMS5003;63065;51.082;17.016;2023-02-04T05:32:49;21;19;
56175;PMS5003;63065;51.082;17.016;2023-02-04T05:35:15;20;20;
56175;PMS5003;63065;51.082;17.016;2023-02-04T05:37:39;21;18;
56175;PMS5003;63065;51.082;17.016;2023-02-04T05:40:05;21;19;
56175;PMS5003;63065;51.082;17.016;2023-02-04T05:44:55;18;17;
56175;PMS5003;63065;51.082;17.016;2023-02-04T05:47:21;23;22;
56175;PMS5003;63065;51.082;17.016;2023-02-04T05:49:47;19;19;
56175;PMS5003;63065;51.082;17.016;2023-02-04T05:52:12;24;19;
56175;PMS5003;63065;51.082;17.016;2023-02-04T05:54:38;19;18;
56175;PMS5003;63065;51.082;17.016;2023-02-04T05:57:03;22;21;
56175;PMS5003;63065;51.082;17.016;2023-02-04T05:59:28;19;19;
56175;PMS5003;63065;51.082;17.016;2023-02-04T06:01:53;25;21;
56175;PMS5003;63065;51.082;17.016;2023-02-04T06:04:18;27;24;
56175;PMS5003;63065;51.082;17.016;2023-02-04T06:06:44;20;16;
56175;PMS5003;63065;51.082;17.016;2023-02-04T06:09:09;23;19;
56175;PMS5003;63065;51.082;17.016;2023-02-04T06:11:34;19;19;
56175;PMS5003;63065;51.082;17.016;2023-02-04T06:14:00;22;21;
56175;PMS5003;63065;51.082;17.016;2023-02-04T06:16:25;20;20;
56175;PMS5003;63065;51.082;17.016;2023-02-04T06:18:50;23;23;
56175;PMS5003;63065;51.082;17.016;2023-02-04T06:21:16;22;21;
56175;PMS5003;63065;51.082;17.016;2023-02-04T06:23:41;22;19;
56175;PMS5003;63065;51.082;17.016;2023-02-04T06:26:07;24;19;
56175;PMS5003;63065;51.082;17.016;2023-02-04T06:28:32;21;19;
56175;PMS5003;63065;51.082;17.016;2023-02-04T06:30:57;26;22;
56175;PMS5003;63065;51.082;17.016;2023-02-04T06:33:23;27;23;
56175;PMS5003;63065;51.082;17.016;2023-02-04T06:35:48;16;15;
56175;PMS5003;63065;51.082;17.016;2023-02-04T06:38:14;14;13;
56175;PMS5003;63065;51.082;17.016;2023-02-04T06:40:39;24;23;
56175;PMS5003;63065;51.082;17.016;2023-02-04T06:43:04;21;20;
56175;PMS5003;63065;51.082;17.016;2023-02-04T06:45:30;20;18;
56175;PMS5003;63065;51.082;17.016;2023-02-04T06:47:55;22;22;
56175;PMS5003;63065;51.082;17.016;2023-02-04T06:50:21;20;16;
56175;PMS5003;63065;51.082;17.016;2023-02-04T06:52:47;16;16;
56175;PMS5003;63065;51.082;17.016;2023-02-04T06:55:12;15;14;
56175;PMS5003;63065;51.082;17.016;2023-02-04T06:57:38;22;19;
56175;PMS5003;63065;51.082;17.016;2023-02-04T07:00:03;18;15;
56175;PMS5003;63065;51.082;17.016;2023-02-04T07:02:29;17;14;
56175;PMS5003;63065;51.082;17.016;2023-02-04T07:04:54;15;14;
56175;PMS5003;63065;51.082;17.016;2023-02-04T07:07:19;15;14;
56175;PMS5003;63065;51.082;17.016;2023-02-04T07:09:44;13;11;
56175;PMS5003;63065;51.082;17.016;2023-02-04T07:12:09;15;12;
56175;PMS5003;63065;51.082;17.016;2023-02-04T07:14:35;13;13;
56175;PMS5003;63065;51.082;17.016;2023-02-04T07:17:05;14;12;
56175;PMS5003;63065;51.082;17.016;2023-02-04T07:19:26;13;13;
56175;PMS5003;63065;51.082;17.016;2023-02-04T07:21:51;14;14;
56175;PMS5003;63065;51.082;17.016;2023-02-04T07:24:17;13;12;
56175;PMS5003;63065;51.082;17.016;2023-02-04T07:26:42;16;13;
56175;PMS5003;63065;51.082;17.016;2023-02-04T07:29:07;10;9;
56175;PMS5003;63065;51.082;17.016;2023-02-04T07:31:33;11;10;
56175;PMS5003;63065;51.082;17.016;2023-02-04T07:34:03;10;10;
56175;PMS5003;63065;51.082;17.016;2023-02-04T07:36:23;10;10;
56175;PMS5003;63065;51.082;17.016;2023-02-04T07:38:48;9;9;
56175;PMS5003;63065;51.082;17.016;2023-02-04T07:41:14;10;10;
56175;PMS5003;63065;51.082;17.016;2023-02-04T07:43:39;13;13;
56175;PMS5003;63065;51.082;17.016;2023-02-04T07:46:05;13;12;
56175;PMS5003;63065;51.082;17.016;2023-02-04T07:48:30;11;11;
56175;PMS5003;63065;51.082;17.016;2023-02-04T07:50:55;10;9;
56175;PMS5003;63065;51.082;17.016;2023-02-04T07:53:21;9;9;
56175;PMS5003;63065;51.082;17.016;2023-02-04T07:55:46;12;12;
56175;PMS5003;63065;51.082;17.016;2023-02-04T07:58:16;11;10;
56175;PMS5003;63065;51.082;17.016;2023-02-04T08:00:36;9;9;
56175;PMS5003;63065;51.082;17.016;2023-02-04T08:03:01;10;10;
56175;PMS5003;63065;51.082;17.016;2023-02-04T08:05:32;7;7;
56175;PMS5003;63065;51.082;17.016;2023-02-04T08:07:52;10;10;
56175;PMS5003;63065;51.082;17.016;2023-02-04T08:10:17;10;10;
56175;PMS5003;63065;51.082;17.016;2023-02-04T08:12:42;13;11;
56175;PMS5003;63065;51.082;17.016;2023-02-04T08:15:08;13;13;
56175;PMS5003;63065;51.082;17.016;2023-02-04T08:17:33;9;9;
56175;PMS5003;63065;51.082;17.016;2023-02-04T08:19:59;9;9;
56175;PMS5003;63065;51.082;17.016;2023-02-04T08:22:24;10;10;
56175;PMS5003;63065;51.082;17.016;2023-02-04T08:24:49;10;8;
56175;PMS5003;63065;51.082;17.016;2023-02-04T08:27:15;11;11;
56175;PMS5003;63065;51.082;17.016;2023-02-04T08:29:41;10;10;
56175;PMS5003;63065;51.082;17.016;2023-02-04T08:32:05;10;7;
56175;PMS5003;63065;51.082;17.016;2023-02-04T08:34:31;14;14;
56175;PMS5003;63065;51.082;17.016;2023-02-04T08:36:56;9;9;
56175;PMS5003;63065;51.082;17.016;2023-02-04T08:39:21;10;10;
56175;PMS5003;63065;51.082;17.016;2023-02-04T08:41:48;15;13;
56175;PMS5003;63065;51.082;17.016;2023-02-04T08:44:12;12;12;
56175;PMS5003;63065;51.082;17.016;2023-02-04T08:46:38;8;8;
56175;PMS5003;63065;51.082;17.016;2023-02-04T08:49:08;11;8;
56175;PMS5003;63065;51.082;17.016;2023-02-04T08:51:28;9;9;
56175;PMS5003;63065;51.082;17.016;2023-02-04T08:53:53;8;6;
56175;PMS5003;63065;51.082;17.016;2023-02-04T08:56:18;5;5;
56175;PMS5003;63065;51.082;17.016;2023-02-04T08:58:44;11;8;
56175;PMS5003;63065;51.082;17.016;2023-02-04T09:01:09;6;6;
56175;PMS5003;63065;51.082;17.016;2023-02-04T09:03:34;7;7;
56175;PMS5003;63065;51.082;17.016;2023-02-04T09:05:59;8;8;
56175;PMS5003;63065;51.082;17.016;2023-02-04T09:08:24;10;10;
56175;PMS5003;63065;51.082;17.016;2023-02-04T09:10:50;8;8;
56175;PMS5003;63065;51.082;17.016;2023-02-04T09:13:15;8;8;
56175;PMS5003;63065;51.082;17.016;2023-02-04T09:15:40;9;8;
56175;PMS5003;63065;51.082;17.016;2023-02-04T09:18:11;11;11;
56175;PMS5003;63065;51.082;17.016;2023-02-04T09:20:30;7;6;
56175;PMS5003;63065;51.082;17.016;2023-02-04T09:23:00;8;7;
56175;PMS5003;63065;51.082;17.016;2023-02-04T09:25:20;7;6;
56175;PMS5003;63065;51.082;17.016;2023-02-04T09:27:46;7;7;
56175;PMS5003;63065;51.082;17.016;2023-02-04T09:30:12;9;9;
56175;PMS5003;63065;51.082;17.016;2023-02-04T09:32:37;7;7;
56175;PMS5003;63065;51.082;17.016;2023-02-04T09:35:03;8;8;
56175;PMS5003;63065;51.082;17.016;2023-02-04T09:39:53;8;8;
56175;PMS5003;63065;51.082;17.016;2023-02-04T09:42:19;8;8;
56175;PMS5003;63065;51.082;17.016;2023-02-04T09:44:44;7;6;
56175;PMS5003;63065;51.082;17.016;2023-02-04T09:47:09;9;8;
56175;PMS5003;63065;51.082;17.016;2023-02-04T09:49:34;5;5;
56175;PMS5003;63065;51.082;17.016;2023-02-04T09:52:00;11;7;
56175;PMS5003;63065;51.082;17.016;2023-02-04T09:54:25;7;7;
56175;PMS5003;63065;51.082;17.016;2023-02-04T09:56:51;9;7;
56175;PMS5003;63065;51.082;17.016;2023-02-04T09:59:16;7;7;
56175;PMS5003;63065;51.082;17.016;2023-02-04T10:01:40;9;8;
56175;PMS5003;63065;51.082;17.016;2023-02-04T10:04:08;7;7;
56175;PMS5003;63065;51.082;17.016;2023-02-04T10:06:30;8;7;
56175;PMS5003;63065;51.082;17.016;2023-02-04T10:16:27;7;7;
56175;PMS5003;63065;51.082;17.016;2023-02-04T10:18:51;11;11;
56175;PMS5003;63065;51.082;17.016;2023-02-04T10:21:18;10;10;
56175;PMS5003;63065;51.082;17.016;2023-02-04T10:23:43;12;12;
56175;PMS5003;63065;51.082;17.016;2023-02-04T10:26:08;15;13;
56175;PMS5003;63065;51.082;17.016;2023-02-04T10:28:33;12;12;
56175;PMS5003;63065;51.082;17.016;2023-02-04T10:30:58;9;9;
56175;PMS5003;63065;51.082;17.016;2023-02-04T10:33:23;12;11;
56175;PMS5003;63065;51.082;17.016;2023-02-04T10:35:49;12;12;
56175;PMS5003;63065;51.082;17.016;2023-02-04T10:38:14;9;9;
56175;PMS5003;63065;51.082;17.016;2023-02-04T10:40:39;10;10;
56175;PMS5003;63065;51.082;17.016;2023-02-04T10:45:30;11;11;
56175;PMS5003;63065;51.082;17.016;2023-02-04T10:47:55;14;10;
56175;PMS5003;63065;51.082;17.016;2023-02-04T13:06:15;3;3;
56175;PMS5003;63065;51.082;17.016;2023-02-04T13:08:39;5;4;
56175;PMS5003;63065;51.082;17.016;2023-02-04T13:11:04;5;5;
56175;PMS5003;63065;51.082;17.016;2023-02-04T13:13:35;4;4;
56175;PMS5003;63065;51.082;17.016;2023-02-04T13:15:55;6;5;
56175;PMS5003;63065;51.082;17.016;2023-02-04T13:18:20;3;3;
56175;PMS5003;63065;51.082;17.016;2023-02-04T13:20:46;5;5;
56175;PMS5003;63065;51.082;17.016;2023-02-04T13:23:11;8;6;
56175;PMS5003;63065;51.082;17.016;2023-02-04T13:25:36;5;5;
56175;PMS5003;63065;51.082;17.016;2023-02-04T13:28:01;4;4;
56175;PMS5003;63065;51.082;17.016;2023-02-04T13:30:27;4;4;
56175;PMS5003;63065;51.082;17.016;2023-02-04T13:32:52;5;4;
56175;PMS5003;63065;51.082;17.016;2023-02-04T13:35:18;6;6;
56175;PMS5003;63065;51.082;17.016;2023-02-04T13:37:43;5;3;
56175;PMS5003;63065;51.082;17.016;2023-02-04T13:40:09;5;5;
56175;PMS5003;63065;51.082;17.016;2023-02-04T13:42:34;4;3;
56175;PMS5003;63065;51.082;17.016;2023-02-04T13:44:59;4;4;
56175;PMS5003;63065;51.082;17.016;2023-02-04T13:47:24;4;4;
56175;PMS5003;63065;51.082;17.016;2023-02-04T13:49:49;8;8;
56175;PMS5003;63065;51.082;17.016;2023-02-04T13:52:14;5;3;
56175;PMS5003;63065;51.082;17.016;2023-02-04T13:54:40;3;3;
56175;PMS5003;63065;51.082;17.016;2023-02-04T13:57:04;5;4;
56175;PMS5003;63065;51.082;17.016;2023-02-04T13:59:29;4;4;
56175;PMS5003;63065;51.082;17.016;2023-02-04T14:02:00;3;3;
56175;PMS5003;63065;51.082;17.016;2023-02-04T14:04:20;3;3;
56175;PMS5003;63065;51.082;17.016;2023-02-04T14:06:45;3;3;
56175;PMS5003;63065;51.082;17.016;2023-02-04T14:09:10;6;6;
56175;PMS5003;63065;51.082;17.016;2023-02-04T14:11:35;3;3;
56175;PMS5003;63065;51.082;17.016;2023-02-04T14:14:01;7;4;
56175;PMS5003;63065;51.082;17.016;2023-02-04T14:16:26;6;5;
56175;PMS5003;63065;51.082;17.016;2023-02-04T14:18:51;5;4;
56175;PMS5003;63065;51.082;17.016;2023-02-04T14:21:16;3;3;
56175;PMS5003;63065;51.082;17.016;2023-02-04T14:23:42;3;3;
56175;PMS5003;63065;51.082;17.016;2023-02-04T14:26:07;3;3;
56175;PMS5003;63065;51.082;17.016;2023-02-04T14:28:33;5;5;
56175;PMS5003;63065;51.082;17.016;2023-02-04T14:30:58;4;4;
56175;PMS5003;63065;51.082;17.016;2023-02-04T14:33:23;4;4;
56175;PMS5003;63065;51.082;17.016;2023-02-04T14:35:48;5;4;
56175;PMS5003;63065;51.082;17.016;2023-02-04T14:38:14;4;4;
56175;PMS5003;63065;51.082;17.016;2023-02-04T14:40:39;5;5;
56175;PMS5003;63065;51.082;17.016;2023-02-04T14:43:05;11;9;
56175;PMS5003;63065;51.082;17.016;2023-02-04T14:45:29;4;4;
56175;PMS5003;63065;51.082;17.016;2023-02-04T14:47:55;11;9;
56175;PMS5003;63065;51.082;17.016;2023-02-04T14:50:20;6;6;
56175;PMS5003;63065;51.082;17.016;2023-02-04T14:52:45;7;7;
56175;PMS5003;63065;51.082;17.016;2023-02-04T14:55:10;5;5;
56175;PMS5003;63065;51.082;17.016;2023-02-04T14:57:36;4;4;
56175;PMS5003;63065;51.082;17.016;2023-02-04T15:00:02;6;6;
56175;PMS5003;63065;51.082;17.016;2023-02-04T15:02:26;6;6;
56175;PMS5003;63065;51.082;17.016;2023-02-04T15:04:51;8;7;
56175;PMS5003;63065;51.082;17.016;2023-02-04T15:07:16;8;7;
56175;PMS5003;63065;51.082;17.016;2023-02-04T15:09:42;8;8;
56175;PMS5003;63065;51.082;17.016;2023-02-04T15:12:07;8;8;
56175;PMS5003;63065;51.082;17.016;2023-02-04T15:14:32;8;7;
56175;PMS5003;63065;51.082;17.016;2023-02-04T15:16:58;10;10;
56175;PMS5003;63065;51.082;17.016;2023-02-04T15:19:24;9;9;
56175;PMS5003;63065;51.082;17.016;2023-02-04T15:21:50;7;7;
56175;PMS5003;63065;51.082;17.016;2023-02-04T15:24:15;10;8;
56175;PMS5003;63065;51.082;17.016;2023-02-04T15:26:40;7;7;
56175;PMS5003;63065;51.082;17.016;2023-02-04T15:29:06;12;11;
56175;PMS5003;63065;51.082;17.016;2023-02-04T15:31:32;11;9;
56175;PMS5003;63065;51.082;17.016;2023-02-04T15:33:58;9;9;
56175;PMS5003;63065;51.082;17.016;2023-02-04T15:36:23;7;7;
56175;PMS5003;63065;51.082;17.016;2023-02-04T15:38:48;9;9;
56175;PMS5003;63065;51.082;17.016;2023-02-04T15:41:19;7;7;
56175;PMS5003;63065;51.082;17.016;2023-02-04T15:43:39;8;8;
56175;PMS5003;63065;51.082;17.016;2023-02-04T15:46:04;7;7;
56175;PMS5003;63065;51.082;17.016;2023-02-04T15:48:29;7;6;
56175;PMS5003;63065;51.082;17.016;2023-02-04T15:50:55;7;7;
56175;PMS5003;63065;51.082;17.016;2023-02-04T15:53:20;10;6;
56175;PMS5003;63065;51.082;17.016;2023-02-04T15:55:45;9;7;
56175;PMS5003;63065;51.082;17.016;2023-02-04T15:58:11;4;4;
56175;PMS5003;63065;51.082;17.016;2023-02-04T16:00:36;4;4;
56175;PMS5003;63065;51.082;17.016;2023-02-04T16:03:02;5;4;
56175;PMS5003;63065;51.082;17.016;2023-02-04T16:05:27;5;4;
56175;PMS5003;63065;51.082;17.016;2023-02-04T16:07:52;4;4;
56175;PMS5003;63065;51.082;17.016;2023-02-04T16:10:17;3;3;
56175;PMS5003;63065;51.082;17.016;2023-02-04T16:12:43;3;3;
56175;PMS5003;63065;51.082;17.016;2023-02-04T16:15:08;4;4;
56175;PMS5003;63065;51.082;17.016;2023-02-04T16:17:34;3;3;
56175;PMS5003;63065;51.082;17.016;2023-02-04T16:20:00;5;4;
56175;PMS5003;63065;51.082;17.016;2023-02-04T16:22:24;2;2;
56175;PMS5003;63065;51.082;17.016;2023-02-04T16:24:49;3;3;
56175;PMS5003;63065;51.082;17.016;2023-02-04T16:27:14;3;3;
56175;PMS5003;63065;51.082;17.016;2023-02-04T16:29:40;3;3;
56175;PMS5003;63065;51.082;17.016;2023-02-04T16:32:05;6;4;
56175;PMS5003;63065;51.082;17.016;2023-02-04T16:34:30;7;7;
56175;PMS5003;63065;51.082;17.016;2023-02-04T16:36:55;5;5;
56175;PMS5003;63065;51.082;17.016;2023-02-04T16:39:21;7;5;
56175;PMS5003;63065;51.082;17.016;2023-02-04T16:41:46;6;6;
56175;PMS5003;63065;51.082;17.016;2023-02-04T16:44:11;7;5;
56175;PMS5003;63065;51.082;17.016;2023-02-04T16:46:36;11;7;
56175;PMS5003;63065;51.082;17.016;2023-02-04T16:49:01;7;5;
56175;PMS5003;63065;51.082;17.016;2023-02-04T16:51:27;9;9;
56175;PMS5003;63065;51.082;17.016;2023-02-04T16:53:52;11;11;
56175;PMS5003;63065;51.082;17.016;2023-02-04T16:56:17;9;9;
56175;PMS5003;63065;51.082;17.016;2023-02-04T16:58:43;11;11;
56175;PMS5003;63065;51.082;17.016;2023-02-04T17:01:09;10;10;
56175;PMS5003;63065;51.082;17.016;2023-02-04T17:03:33;7;7;
56175;PMS5003;63065;51.082;17.016;2023-02-04T17:05:58;11;10;
56175;PMS5003;63065;51.082;17.016;2023-02-04T17:08:24;12;11;
56175;PMS5003;63065;51.082;17.016;2023-02-04T17:10:49;10;6;
56175;PMS5003;63065;51.082;17.016;2023-02-04T17:13:15;11;9;
56175;PMS5003;63065;51.082;17.016;2023-02-04T17:15:41;12;11;
56175;PMS5003;63065;51.082;17.016;2023-02-04T17:18:06;7;7;
56175;PMS5003;63065;51.082;17.016;2023-02-04T17:20:31;4;4;
56175;PMS5003;63065;51.082;17.016;2023-02-04T17:22:56;7;5;
56175;PMS5003;63065;51.082;17.016;2023-02-04T17:25:22;6;6;
56175;PMS5003;63065;51.082;17.016;2023-02-04T17:27:47;6;6;
56175;PMS5003;63065;51.082;17.016;2023-02-04T17:30:12;5;5;
56175;PMS5003;63065;51.082;17.016;2023-02-04T17:32:37;5;5;
56175;PMS5003;63065;51.082;17.016;2023-02-04T17:35:02;4;4;
56175;PMS5003;63065;51.082;17.016;2023-02-04T17:37:28;11;7;
56175;PMS5003;63065;51.082;17.016;2023-02-04T17:39:53;7;6;
56175;PMS5003;63065;51.082;17.016;2023-02-04T17:42:18;9;7;
56175;PMS5003;63065;51.082;17.016;2023-02-04T17:44:43;6;6;
56175;PMS5003;63065;51.082;17.016;2023-02-04T17:47:09;6;6;
56175;PMS5003;63065;51.082;17.016;2023-02-04T17:49:34;6;6;
56175;PMS5003;63065;51.082;17.016;2023-02-04T17:52:00;5;5;
56175;PMS5003;63065;51.082;17.016;2023-02-04T17:54:25;7;7;
56175;PMS5003;63065;51.082;17.016;2023-02-04T17:56:50;4;4;
56175;PMS5003;63065;51.082;17.016;2023-02-04T17:59:15;6;6;
56175;PMS5003;63065;51.082;17.016;2023-02-04T18:01:41;5;5;
56175;PMS5003;63065;51.082;17.016;2023-02-04T18:04:08;7;7;
56175;PMS5003;63065;51.082;17.016;2023-02-04T18:06:31;9;6;
56175;PMS5003;63065;51.082;17.016;2023-02-04T18:08:57;7;7;
56175;PMS5003;63065;51.082;17.016;2023-02-04T18:11:23;11;9;
56175;PMS5003;63065;51.082;17.016;2023-02-04T18:13:48;9;9;
56175;PMS5003;63065;51.082;17.016;2023-02-04T18:16:18;7;7;
56175;PMS5003;63065;51.082;17.016;2023-02-04T18:18:39;13;11;
56175;PMS5003;63065;51.082;17.016;2023-02-04T18:23:29;7;7;
56175;PMS5003;63065;51.082;17.016;2023-02-04T18:25:55;7;6;
56175;PMS5003;63065;51.082;17.016;2023-02-04T18:28:20;9;9;
56175;PMS5003;63065;51.082;17.016;2023-02-04T18:30:45;7;7;
56175;PMS5003;63065;51.082;17.016;2023-02-04T18:33:13;7;6;
56175;PMS5003;63065;51.082;17.016;2023-02-04T18:35:37;7;7;
56175;PMS5003;63065;51.082;17.016;2023-02-04T18:38:01;11;9;
56175;PMS5003;63065;51.082;17.016;2023-02-04T18:40:27;12;11;